Time,TemperatureF,DewpointF,PressureIn,WindDirection,WindDirectionDegrees,WindSpeedMPH,WindSpeedGustMPH,Humidity,HourlyPrecipIn,Conditions,Clouds,dailyrainin,SolarRadiationWatts/m^2,SoftwareType,DateUTC
2013-03-16 00:02:00,49.0,37.0,-100.00,West,275,6.0,13.0,64,0.00,,,0.00,0.000000,,2013-03-16 07:02:00,
2013-03-16 00:12:00,49.0,37.0,-100.00,West,275,6.0,13.0,64,0.00,,,0.00,0.000000,,2013-03-16 07:12:00,
2013-03-16 00:22:00,49.0,37.0,-100.00,West,275,6.0,13.0,64,0.00,,,0.00,0.000000,,2013-03-16 07:22:00,
2013-03-16 00:52:00,48.0,37.0,-100.00,WNW,301,8.0,12.0,65,0.00,,,0.00,0.000000,,2013-03-16 07:52:00,
2013-03-16 01:02:00,48.0,37.0,-100.00,WNW,301,8.0,12.0,65,0.00,,,0.00,0.000000,,2013-03-16 08:02:00,
2013-03-16 01:12:00,48.0,37.0,-100.00,WNW,301,8.0,12.0,65,0.00,,,0.00,0.000000,,2013-03-16 08:12:00,
2013-03-16 01:22:00,48.0,37.0,-100.00,WNW,301,8.0,12.0,65,0.00,,,0.00,0.000000,,2013-03-16 08:22:00,
2013-03-16 01:52:00,45.0,37.0,-100.00,WNW,294,9.0,12.0,72,0.00,,,0.00,0.000000,,2013-03-16 08:52:00,
2013-03-16 02:01:00,45.0,37.0,-100.00,WNW,294,9.0,12.0,72,0.00,,,0.00,0.000000,,2013-03-16 09:01:00,
2013-03-16 02:12:00,45.0,37.0,-100.00,WNW,294,9.0,12.0,72,0.00,,,0.00,0.000000,,2013-03-16 09:12:00,
2013-03-16 02:22:00,45.0,37.0,-100.00,WNW,294,9.0,12.0,72,0.00,,,0.00,0.000000,,2013-03-16 09:22:00,
2013-03-16 02:53:00,43.0,37.0,-100.00,WNW,287,7.0,10.0,78,0.00,,,0.00,0.000000,,2013-03-16 09:53:00,
2013-03-16 03:03:00,43.0,37.0,-100.00,WNW,287,7.0,10.0,78,0.00,,,0.00,0.000000,,2013-03-16 10:03:00,
2013-03-16 03:12:00,43.0,37.0,-100.00,WNW,287,7.0,10.0,78,0.00,,,0.00,0.000000,,2013-03-16 10:12:00,
2013-03-16 03:22:00,43.0,37.0,-100.00,WNW,287,7.0,10.0,78,0.00,,,0.00,0.000000,,2013-03-16 10:22:00,
2013-03-16 03:53:00,41.0,36.0,-100.00,West,269,4.0,8.0,81,0.00,,,0.00,0.000000,,2013-03-16 10:53:00,
2013-03-16 04:03:00,41.0,36.0,-100.00,West,269,4.0,8.0,81,0.00,,,0.00,0.000000,,2013-03-16 11:03:00,
2013-03-16 04:12:00,41.0,36.0,-100.00,West,269,4.0,8.0,81,0.00,,,0.00,0.000000,,2013-03-16 11:12:00,
2013-03-16 04:22:00,41.0,36.0,-100.00,West,269,4.0,8.0,81,0.00,,,0.00,0.000000,,2013-03-16 11:22:00,
2013-03-16 04:52:00,40.0,36.0,-100.00,West,261,2.0,6.0,85,0.00,,,0.00,0.000000,,2013-03-16 11:52:00,
2013-03-16 05:02:00,40.0,36.0,-100.00,West,261,2.0,6.0,85,0.00,,,0.00,0.000000,,2013-03-16 12:02:00,
2013-03-16 05:12:00,40.0,36.0,-100.00,West,261,2.0,6.0,85,0.00,,,0.00,0.000000,,2013-03-16 12:12:00,
2013-03-16 05:22:00,40.0,36.0,-100.00,West,261,2.0,6.0,85,0.00,,,0.00,0.000000,,2013-03-16 12:22:00,
2013-03-16 05:52:00,42.0,36.0,-100.00,SW,234,7.0,10.0,80,0.00,,,0.00,0.000000,,2013-03-16 12:52:00,
2013-03-16 06:02:00,42.0,36.0,-100.00,SW,234,7.0,10.0,80,0.00,,,0.00,0.000000,,2013-03-16 13:02:00,
2013-03-16 06:12:00,42.0,36.0,-100.00,SW,234,7.0,10.0,80,0.00,,,0.00,0.000000,,2013-03-16 13:12:00,
2013-03-16 06:22:00,42.0,36.0,-100.00,SW,234,7.0,10.0,80,0.00,,,0.00,0.000000,,2013-03-16 13:22:00,
2013-03-16 06:53:00,40.0,36.0,-100.00,WSW,256,5.0,8.0,86,0.00,,,0.00,0.000000,,2013-03-16 13:53:00,
2013-03-16 07:02:00,40.0,36.0,-100.00,WSW,256,5.0,8.0,86,0.00,,,0.00,0.000000,,2013-03-16 14:02:00,
2013-03-16 07:12:00,40.0,36.0,-100.00,WSW,256,5.0,8.0,86,0.00,,,0.00,0.000000,,2013-03-16 14:12:00,
2013-03-16 07:22:00,40.0,36.0,-100.00,WSW,256,5.0,8.0,86,0.00,,,0.00,0.000000,,2013-03-16 14:22:00,
2013-03-16 07:52:00,40.0,36.0,-100.00,NNE,32,4.0,7.0,86,0.00,,,0.00,3.000000,,2013-03-16 14:52:00,
2013-03-16 08:02:00,40.0,36.0,-100.00,NNE,32,4.0,7.0,86,0.00,,,0.00,3.000000,,2013-03-16 15:02:00,
2013-03-16 08:12:00,40.0,36.0,-100.00,NNE,32,4.0,7.0,86,0.00,,,0.00,3.000000,,2013-03-16 15:12:00,
2013-03-16 08:22:00,40.0,36.0,-100.00,NNE,32,4.0,7.0,86,0.00,,,0.00,3.000000,,2013-03-16 15:22:00,
2013-03-16 08:53:00,42.0,38.0,-100.00,North,356,3.0,5.0,87,0.00,,,0.00,43.000000,,2013-03-16 15:53:00,
2013-03-16 09:02:00,42.0,38.0,-100.00,North,356,3.0,5.0,87,0.00,,,0.00,43.000000,,2013-03-16 16:02:00,
2013-03-16 09:12:00,42.0,38.0,-100.00,North,356,3.0,5.0,87,0.00,,,0.00,43.000000,,2013-03-16 16:12:00,
2013-03-16 09:22:00,42.0,38.0,-100.00,North,356,3.0,5.0,87,0.00,,,0.00,43.000000,,2013-03-16 16:22:00,
2013-03-16 09:53:00,46.0,40.0,-100.00,East,99,3.0,5.0,78,0.00,,,0.00,134.000000,,2013-03-16 16:53:00,
2013-03-16 10:02:00,46.0,40.0,-100.00,East,99,3.0,5.0,78,0.00,,,0.00,134.000000,,2013-03-16 17:02:00,
2013-03-16 10:12:00,46.0,40.0,-100.00,East,99,3.0,5.0,78,0.00,,,0.00,134.000000,,2013-03-16 17:12:00,
2013-03-16 10:22:00,46.0,40.0,-100.00,East,99,3.0,5.0,78,0.00,,,0.00,134.000000,,2013-03-16 17:22:00,
2013-03-16 10:53:00,49.0,41.0,-100.00,SSE,166,3.0,5.0,73,0.00,,,0.00,201.000000,,2013-03-16 17:53:00,
2013-03-16 11:02:00,49.0,41.0,-100.00,SSE,166,3.0,5.0,73,0.00,,,0.00,201.000000,,2013-03-16 18:02:00,
2013-03-16 11:13:00,49.0,41.0,-100.00,SSE,166,3.0,5.0,73,0.00,,,0.00,201.000000,,2013-03-16 18:13:00,
2013-03-16 11:22:00,49.0,41.0,-100.00,SSE,166,3.0,5.0,73,0.00,,,0.00,201.000000,,2013-03-16 18:22:00,
2013-03-16 11:53:00,52.0,40.0,-100.00,SSW,201,4.0,7.0,64,0.00,,,0.00,224.000000,,2013-03-16 18:53:00,
2013-03-16 12:02:00,52.0,40.0,-100.00,SSW,201,4.0,7.0,64,0.00,,,0.00,224.000000,,2013-03-16 19:02:00,
2013-03-16 12:12:00,52.0,40.0,-100.00,SSW,201,4.0,7.0,64,0.00,,,0.00,224.000000,,2013-03-16 19:12:00,
2013-03-16 12:22:00,52.0,40.0,-100.00,SSW,201,4.0,7.0,64,0.00,,,0.00,224.000000,,2013-03-16 19:22:00,
2013-03-16 12:52:00,55.0,39.0,-100.00,SSW,213,9.0,14.0,54,0.00,,,0.00,444.000000,,2013-03-16 19:52:00,
2013-03-16 13:02:00,55.0,39.0,-100.00,SSW,213,9.0,14.0,54,0.00,,,0.00,444.000000,,2013-03-16 20:02:00,
2013-03-16 13:12:00,55.0,39.0,-100.00,SSW,213,9.0,14.0,54,0.00,,,0.00,444.000000,,2013-03-16 20:12:00,
2013-03-16 13:21:00,55.0,39.0,-100.00,SSW,213,9.0,14.0,54,0.00,,,0.00,444.000000,,2013-03-16 20:21:00,
2013-03-16 13:52:00,55.0,38.0,-100.00,SW,228,8.0,15.0,53,0.00,,,0.00,409.000000,,2013-03-16 20:52:00,
2013-03-16 14:02:00,55.0,38.0,-100.00,SW,228,8.0,15.0,53,0.00,,,0.00,409.000000,,2013-03-16 21:02:00,
2013-03-16 14:12:00,55.0,38.0,-100.00,SW,228,8.0,15.0,53,0.00,,,0.00,409.000000,,2013-03-16 21:12:00,
2013-03-16 14:22:00,55.0,38.0,-100.00,SW,228,8.0,15.0,53,0.00,,,0.00,409.000000,,2013-03-16 21:22:00,
2013-03-16 14:52:00,56.0,36.0,-100.00,WSW,240,8.0,17.0,46,0.00,,,0.00,369.000000,,2013-03-16 21:52:00,
2013-03-16 15:03:00,56.0,36.0,-100.00,WSW,240,8.0,17.0,46,0.00,,,0.00,369.000000,,2013-03-16 22:03:00,
2013-03-16 15:12:00,56.0,36.0,-100.00,WSW,240,8.0,17.0,46,0.00,,,0.00,369.000000,,2013-03-16 22:12:00,
2013-03-16 15:22:00,56.0,36.0,-100.00,WSW,240,8.0,17.0,46,0.00,,,0.00,369.000000,,2013-03-16 22:22:00,
2013-03-16 15:52:00,55.0,35.0,-100.00,SW,217,15.0,25.0,46,0.00,,,0.00,207.000000,,2013-03-16 22:52:00,
2013-03-16 16:02:00,55.0,35.0,-100.00,SW,217,15.0,25.0,46,0.00,,,0.00,207.000000,,2013-03-16 23:02:00,
2013-03-16 16:12:00,55.0,35.0,-100.00,SW,217,15.0,25.0,46,0.00,,,0.00,207.000000,,2013-03-16 23:12:00,
2013-03-16 16:22:00,55.0,35.0,-100.00,SW,217,15.0,25.0,46,0.00,,,0.00,207.000000,,2013-03-16 23:22:00,
2013-03-16 16:52:00,55.0,35.0,-100.00,SW,217,14.0,27.0,46,0.00,,,0.00,201.000000,,2013-03-16 23:52:00,
2013-03-16 17:01:00,55.0,35.0,-100.00,SW,217,14.0,27.0,46,0.00,,,0.00,201.000000,,2013-03-17 00:01:00,
2013-03-16 17:12:00,55.0,35.0,-100.00,SW,217,14.0,27.0,46,0.00,,,0.00,201.000000,,2013-03-17 00:12:00,
2013-03-16 17:22:00,55.0,35.0,-100.00,SW,217,14.0,27.0,46,0.00,,,0.00,201.000000,,2013-03-17 00:22:00,
2013-03-16 17:52:00,54.0,33.0,-100.00,SW,234,17.0,28.0,44,0.00,,,0.00,211.000000,,2013-03-17 00:52:00,
2013-03-16 18:02:00,54.0,33.0,-100.00,SW,234,17.0,28.0,44,0.00,,,0.00,211.000000,,2013-03-17 01:02:00,
2013-03-16 18:12:00,54.0,33.0,-100.00,SW,234,17.0,28.0,44,0.00,,,0.00,211.000000,,2013-03-17 01:12:00,
2013-03-16 18:22:00,54.0,33.0,-100.00,SW,234,17.0,28.0,44,0.00,,,0.00,211.000000,,2013-03-17 01:22:00,
2013-03-16 18:53:00,53.0,33.0,-100.00,West,268,17.0,26.0,47,0.00,,,0.00,103.000000,,2013-03-17 01:53:00,
2013-03-16 19:02:00,53.0,33.0,-100.00,West,268,17.0,26.0,47,0.00,,,0.00,103.000000,,2013-03-17 02:02:00,
2013-03-16 19:12:00,53.0,33.0,-100.00,West,268,17.0,26.0,47,0.00,,,0.00,103.000000,,2013-03-17 02:12:00,
2013-03-16 19:22:00,53.0,33.0,-100.00,West,268,17.0,26.0,47,0.00,,,0.00,103.000000,,2013-03-17 02:22:00,
2013-03-16 19:52:00,47.0,34.0,-100.00,West,264,14.0,22.0,61,0.00,,,0.00,13.000000,,2013-03-17 02:52:00,
2013-03-16 20:02:00,47.0,34.0,-100.00,West,264,14.0,22.0,61,0.00,,,0.00,13.000000,,2013-03-17 03:02:00,
2013-03-16 20:12:00,47.0,34.0,-100.00,West,264,14.0,22.0,61,0.00,,,0.00,13.000000,,2013-03-17 03:12:00,
2013-03-16 20:22:00,47.0,34.0,-100.00,West,264,14.0,22.0,61,0.00,,,0.00,13.000000,,2013-03-17 03:22:00,
2013-03-16 20:53:00,43.0,30.0,-100.00,West,273,24.0,36.0,61,0.00,,,0.00,0.000000,,2013-03-17 03:53:00,
2013-03-16 21:03:00,43.0,30.0,-100.00,West,273,24.0,36.0,61,0.00,,,0.00,0.000000,,2013-03-17 04:03:00,
2013-03-16 21:12:00,43.0,30.0,-100.00,West,273,24.0,36.0,61,0.00,,,0.00,0.000000,,2013-03-17 04:12:00,
2013-03-16 21:23:00,43.0,30.0,-100.00,West,273,24.0,36.0,61,0.00,,,0.00,0.000000,,2013-03-17 04:23:00,
2013-03-16 21:53:00,43.0,30.0,-100.00,West,259,16.0,25.0,61,0.00,,,0.00,0.000000,,2013-03-17 04:53:00,
2013-03-16 22:02:00,43.0,30.0,-100.00,West,259,16.0,25.0,61,0.00,,,0.00,0.000000,,2013-03-17 05:02:00,
2013-03-16 22:12:00,43.0,30.0,-100.00,West,259,16.0,25.0,61,0.00,,,0.00,0.000000,,2013-03-17 05:12:00,
2013-03-16 22:22:00,43.0,30.0,-100.00,West,259,16.0,25.0,61,0.00,,,0.00,0.000000,,2013-03-17 05:22:00,
2013-03-16 22:52:00,40.0,24.0,-100.00,West,277,16.0,29.0,53,0.00,,,0.00,0.000000,,2013-03-17 05:52:00,
2013-03-16 23:02:00,40.0,24.0,-100.00,West,277,16.0,29.0,53,0.00,,,0.00,0.000000,,2013-03-17 06:02:00,
2013-03-16 23:12:00,40.0,24.0,-100.00,West,277,16.0,29.0,53,0.00,,,0.00,0.000000,,2013-03-17 06:12:00,
2013-03-16 23:22:00,40.0,24.0,-100.00,West,277,16.0,29.0,53,0.00,,,0.00,0.000000,,2013-03-17 06:22:00,
2013-03-16 23:52:00,37.0,24.0,-100.00,WSW,245,10.0,23.0,60,0.00,,,0.00,0.000000,,2013-03-17 06:52:00,